createdAt,value
2023-01-19T00:01:31.245Z,22.77
2023-01-19T00:03:58.586Z,23.92
2023-01-19T00:06:25.833Z,22.75
2023-01-19T00:08:53.034Z,21.55
2023-01-19T00:11:20.371Z,24.52
2023-01-19T00:13:50.695Z,24.25
2023-01-19T00:16:18.917Z,20.38
2023-01-19T00:18:46.341Z,23.13
2023-01-19T00:21:16.506Z,23.75
2023-01-19T00:23:47.389Z,23.83
2023-01-19T00:26:16.308Z,25.63
2023-01-19T00:28:44.095Z,23.27
2023-01-19T00:31:11.862Z,20.83
2023-01-19T00:33:39.073Z,26.20
2023-01-19T00:36:06.600Z,28.45
2023-01-19T00:38:33.740Z,31.70
2023-01-19T00:41:00.934Z,28.50
2023-01-19T00:43:28.222Z,29.73
2023-01-19T00:45:55.433Z,32.58
2023-01-19T00:48:22.673Z,29.23
2023-01-19T00:50:49.853Z,32.72
2023-01-19T00:53:17.119Z,35.10
2023-01-19T00:55:44.326Z,31.00
2023-01-19T00:58:11.459Z,30.85
2023-01-19T01:00:38.862Z,28.38
2023-01-19T01:03:06.156Z,33.25
2023-01-19T01:05:33.467Z,31.60
2023-01-19T01:08:00.724Z,30.50
2023-01-19T01:10:29.189Z,34.45
2023-01-19T01:12:57.686Z,31.95
2023-01-19T01:15:27.665Z,37.25
2023-01-19T01:17:55.469Z,37.38
2023-01-19T01:20:26.996Z,39.88
2023-01-19T01:22:54.491Z,34.92
2023-01-19T01:25:23.242Z,35.42
2023-01-19T01:27:51.261Z,40.35
2023-01-19T01:30:21.207Z,32.88
2023-01-19T01:32:49.034Z,32.83
2023-01-19T01:35:16.341Z,33.38
2023-01-19T01:37:43.533Z,35.92
2023-01-19T01:40:13.355Z,37.53
2023-01-19T01:42:40.748Z,33.80
2023-01-19T01:45:31.048Z,36.65
2023-01-19T01:48:23.852Z,41.28
2023-01-19T01:51:22.425Z,40.88
2023-01-19T01:53:59.757Z,43.22
2023-01-19T01:56:32.975Z,42.80
2023-01-19T01:59:00.259Z,43.97
2023-01-19T02:01:46.251Z,43.70
2023-01-19T02:04:13.709Z,42.42
2023-01-19T02:06:59.563Z,37.55
2023-01-19T02:09:45.436Z,38.45
2023-01-19T02:12:31.376Z,38.22
2023-01-19T02:14:58.642Z,38.17
2023-01-19T02:17:25.856Z,41.40
2023-01-19T02:19:53.886Z,40.90
2023-01-19T02:22:35.979Z,36.40
2023-01-19T02:25:04.932Z,37.88
2023-01-19T02:27:32.634Z,40.65
2023-01-19T02:30:00.580Z,35.95
2023-01-19T02:32:28.174Z,41.83
2023-01-19T02:34:55.393Z,43.63
2023-01-19T02:37:22.659Z,41.55
2023-01-19T02:39:55.758Z,40.42
2023-01-19T02:42:29.869Z,38.80
2023-01-19T02:44:57.287Z,37.75
2023-01-19T02:47:24.665Z,38.20
2023-01-19T02:49:57.090Z,36.22
2023-01-19T02:52:24.586Z,34.22
2023-01-19T02:55:07.078Z,35.67
2023-01-19T02:58:01.300Z,38.47
2023-01-19T03:00:59.802Z,34.23
2023-01-19T03:03:46.273Z,35.40
2023-01-19T03:06:55.967Z,37.05
2023-01-19T03:09:38.147Z,38.47
2023-01-19T03:12:18.934Z,35.35
2023-01-19T03:14:46.753Z,38.08
2023-01-19T03:17:15.277Z,34.85
2023-01-19T03:19:42.971Z,32.80
2023-01-19T03:22:22.960Z,33.50
2023-01-19T03:24:50.496Z,29.83
2023-01-19T03:27:31.256Z,35.17
2023-01-19T03:30:22.286Z,36.40
2023-01-19T03:33:07.219Z,34.40
2023-01-19T03:35:36.841Z,30.98
2023-01-19T03:38:06.704Z,33.88
2023-01-19T03:40:34.853Z,31.27
2023-01-19T03:43:02.870Z,32.60
2023-01-19T03:45:31.511Z,35.83
2023-01-19T03:47:59.633Z,33.38
2023-01-19T03:50:29.001Z,29.67
2023-01-19T03:53:16.660Z,30.30
2023-01-19T03:55:48.264Z,26.88
2023-01-19T03:58:15.459Z,23.98
2023-01-19T04:00:42.789Z,25.05
2023-01-19T04:03:17.177Z,22.92
2023-01-19T04:08:12.000Z,23.95
2023-01-19T04:10:39.533Z,26.25
2023-01-19T04:13:06.836Z,25.77
2023-01-19T04:15:34.163Z,24.13
2023-01-19T04:18:01.507Z,22.67
2023-01-19T04:20:28.848Z,23.08
2023-01-19T04:22:59.420Z,22.15
2023-01-19T04:25:27.894Z,23.17
2023-01-19T04:27:55.333Z,20.92
2023-01-19T04:30:22.739Z,22.65
2023-01-19T04:32:50.062Z,17.75
2023-01-19T04:35:17.422Z,19.70
2023-01-19T04:37:45.123Z,20.92
2023-01-19T04:40:12.712Z,18.27
2023-01-19T04:42:43.909Z,19.17
2023-01-19T04:45:12.553Z,22.83
2023-01-19T04:47:40.119Z,23.23
2023-01-19T04:50:08.728Z,23.50
2023-01-19T04:52:36.224Z,25.20
2023-01-19T04:55:04.835Z,24.65
2023-01-19T04:57:32.113Z,30.17
2023-01-19T04:59:59.363Z,31.20
2023-01-19T05:02:26.655Z,25.20
2023-01-19T05:04:53.872Z,29.65
2023-01-19T05:07:21.133Z,28.88
2023-01-19T05:09:48.369Z,30.23
2023-01-19T05:12:15.625Z,25.85
2023-01-19T05:14:43.349Z,26.52
2023-01-19T05:17:10.700Z,28.35
2023-01-19T05:19:37.879Z,27.67
2023-01-19T05:22:05.527Z,32.92
2023-01-19T05:24:32.819Z,30.55
2023-01-19T05:27:00.095Z,31.35
2023-01-19T05:29:27.290Z,32.22
2023-01-19T05:31:54.700Z,27.58
2023-01-19T05:34:21.860Z,32.33
2023-01-19T05:36:49.092Z,32.47
2023-01-19T05:39:16.268Z,33.67
2023-01-19T05:41:45.494Z,33.00
2023-01-19T05:44:13.410Z,34.17
2023-01-19T05:46:40.901Z,31.10
2023-01-19T05:49:08.156Z,33.05
2023-01-19T05:51:38.129Z,38.90
2023-01-19T05:54:07.773Z,36.58
2023-01-19T05:56:35.616Z,46.33
2023-01-19T05:59:06.244Z,48.65
2023-01-19T06:01:38.941Z,51.38
2023-01-19T06:04:07.191Z,51.10
2023-01-19T06:06:35.159Z,54.22
2023-01-19T06:09:03.076Z,44.72
2023-01-19T06:11:30.285Z,42.65
2023-01-19T06:13:57.694Z,37.67
2023-01-19T06:16:24.947Z,36.75
2023-01-19T06:18:59.368Z,37.25
2023-01-19T06:21:29.289Z,37.60
2023-01-19T06:23:56.548Z,39.35
2023-01-19T06:26:23.697Z,38.90
2023-01-19T06:28:54.502Z,44.25
2023-01-19T06:31:22.952Z,38.42
2023-01-19T06:33:50.195Z,34.72
2023-01-19T06:36:17.361Z,43.00
2023-01-19T06:38:44.637Z,40.38
2023-01-19T06:41:12.893Z,37.25
2023-01-19T06:43:40.088Z,37.22
2023-01-19T06:46:07.488Z,40.22
2023-01-19T06:48:34.795Z,40.55
2023-01-19T06:51:04.333Z,48.45
2023-01-19T06:53:31.842Z,50.90
2023-01-19T06:56:01.770Z,53.22
2023-01-19T06:58:29.535Z,50.17
2023-01-19T07:01:01.525Z,52.35
2023-01-19T07:03:28.963Z,53.08
2023-01-19T07:05:56.942Z,51.42
2023-01-19T07:08:24.390Z,49.65
2023-01-19T07:11:23.118Z,58.33
2023-01-19T07:13:39.953Z,53.58
2023-01-19T07:16:10.058Z,48.40
2023-01-19T07:18:38.129Z,53.70
2023-01-19T07:21:05.839Z,58.50
2023-01-19T07:23:33.261Z,61.95
2023-01-19T07:26:03.579Z,63.85
2023-01-19T07:28:31.743Z,72.05
2023-01-19T07:30:59.618Z,79.03
2023-01-19T07:33:28.263Z,77.93
2023-01-19T07:35:55.433Z,80.68
2023-01-19T07:38:22.817Z,87.80
2023-01-19T07:40:50.043Z,84.90
2023-01-19T07:43:17.219Z,85.57
2023-01-19T07:45:46.499Z,77.95
2023-01-19T07:48:13.816Z,86.60
2023-01-19T07:50:41.618Z,89.05
2023-01-19T07:53:09.254Z,91.53
2023-01-19T07:55:36.627Z,84.30
2023-01-19T07:58:07.308Z,84.63
2023-01-19T08:00:35.957Z,82.75
2023-01-19T08:03:04.200Z,94.18
2023-01-19T08:05:33.022Z,94.25
2023-01-19T08:08:00.969Z,92.75
2023-01-19T08:10:28.626Z,97.22
2023-01-19T08:12:56.822Z,96.95
2023-01-19T08:15:25.065Z,101.50
2023-01-19T08:18:02.800Z,98.75
2023-01-19T08:20:30.261Z,106.95
2023-01-19T08:23:01.512Z,112.13
2023-01-19T08:25:45.164Z,113.30
2023-01-19T08:28:17.790Z,115.93
2023-01-19T08:30:45.476Z,123.13
2023-01-19T08:33:13.330Z,116.65
2023-01-19T08:35:55.793Z,120.80
2023-01-19T08:38:25.418Z,121.68
2023-01-19T08:41:02.004Z,121.32
2023-01-19T08:43:29.620Z,133.88
2023-01-19T08:46:08.540Z,132.65
2023-01-19T08:48:36.196Z,132.93
2023-01-19T08:51:06.199Z,122.47
2023-01-19T08:53:50.964Z,115.25
2023-01-19T08:56:20.934Z,114.63
2023-01-19T08:58:59.471Z,104.72
2023-01-19T09:01:37.359Z,101.18
2023-01-19T09:04:05.098Z,98.10
2023-01-19T09:06:43.529Z,88.57
2023-01-19T09:09:18.095Z,83.75
2023-01-19T09:12:04.002Z,91.78
2023-01-19T09:14:35.134Z,88.82
2023-01-19T09:17:06.435Z,82.20
2023-01-19T09:19:35.045Z,91.00
2023-01-19T09:22:05.991Z,83.03
2023-01-19T09:24:45.188Z,81.70
2023-01-19T09:27:21.059Z,71.43
2023-01-19T09:29:52.583Z,71.88
2023-01-19T09:32:25.332Z,73.43
2023-01-19T09:35:03.825Z,65.13
2023-01-19T09:37:39.514Z,69.18
2023-01-19T09:40:08.965Z,61.10
2023-01-19T09:43:17.605Z,62.20
2023-01-19T09:46:15.512Z,63.25
2023-01-19T09:49:27.848Z,66.70
2023-01-19T09:52:06.592Z,61.35
2023-01-19T09:54:48.994Z,67.65
2023-01-19T09:57:35.240Z,62.47
2023-01-19T10:00:18.686Z,66.57
2023-01-19T10:03:13.228Z,65.70
2023-01-19T10:05:55.941Z,65.43
2023-01-19T10:08:46.360Z,65.80
2023-01-19T10:11:59.389Z,64.13
2023-01-19T10:15:30.850Z,61.70
2023-01-19T10:18:35.923Z,66.00
2023-01-19T10:21:32.790Z,53.53
2023-01-19T10:24:10.111Z,53.90
2023-01-19T10:26:51.141Z,59.63
2023-01-19T10:29:39.538Z,54.63
2023-01-19T10:32:36.692Z,56.97
2023-01-19T10:35:21.975Z,53.58
2023-01-19T10:37:49.771Z,53.10
2023-01-19T10:40:56.817Z,50.40
2023-01-19T10:43:48.202Z,52.45
2023-01-19T10:46:30.564Z,50.55
2023-01-19T10:49:03.066Z,51.55
2023-01-19T10:51:30.561Z,55.15
2023-01-19T10:54:09.727Z,46.42
2023-01-19T10:56:45.953Z,48.50
2023-01-19T11:00:30.682Z,44.47
2023-01-19T11:03:08.427Z,43.03
2023-01-19T11:06:16.573Z,41.15
2023-01-19T11:08:51.910Z,42.47
2023-01-19T11:11:32.364Z,48.65
2023-01-19T11:14:23.677Z,46.47
2023-01-19T11:16:56.911Z,45.30
2023-01-19T11:19:34.504Z,46.13
2023-01-19T11:22:27.076Z,50.42
2023-01-19T11:25:05.050Z,47.97
2023-01-19T11:27:49.406Z,50.90
2023-01-19T11:33:27.769Z,42.03
2023-01-19T11:36:30.249Z,45.15
2023-01-19T11:39:28.996Z,39.85
2023-01-19T11:41:59.136Z,39.10
2023-01-19T11:44:58.361Z,47.13
2023-01-19T11:47:44.272Z,45.53
2023-01-19T11:50:25.347Z,47.67
2023-01-19T11:53:15.650Z,42.28
2023-01-19T11:56:41.175Z,45.97
2023-01-19T11:59:12.025Z,39.60
2023-01-19T12:01:45.830Z,41.67
2023-01-19T12:04:35.450Z,41.53
2023-01-19T12:07:09.000Z,41.38
2023-01-19T12:09:53.137Z,42.25
2023-01-19T12:12:30.924Z,43.22
2023-01-19T12:15:09.193Z,37.85
2023-01-19T12:17:40.645Z,38.25
2023-01-19T12:20:34.062Z,36.05
2023-01-19T12:23:25.152Z,33.70
2023-01-19T12:26:13.256Z,32.00
2023-01-19T12:28:46.136Z,37.03
2023-01-19T12:31:17.736Z,34.05
2023-01-19T12:33:45.139Z,35.83
2023-01-19T12:36:35.392Z,35.38
2023-01-19T12:39:10.466Z,37.65
2023-01-19T12:41:38.744Z,39.95
2023-01-19T12:44:12.080Z,37.13
2023-01-19T12:46:50.132Z,39.37
2023-01-19T12:49:29.646Z,40.03
2023-01-19T12:52:33.404Z,40.17
2023-01-19T12:55:01.735Z,40.92
2023-01-19T12:57:49.528Z,38.05
2023-01-19T13:00:22.701Z,38.88
2023-01-19T13:02:53.820Z,34.13
2023-01-19T13:05:39.066Z,37.65
2023-01-19T13:08:06.448Z,42.35
2023-01-19T13:11:15.006Z,38.28
2023-01-19T13:13:48.795Z,44.10
2023-01-19T13:16:19.082Z,40.22
2023-01-19T13:18:57.071Z,41.05
2023-01-19T13:21:34.703Z,40.55
2023-01-19T13:24:06.535Z,42.80
2023-01-19T13:26:49.671Z,38.88
2023-01-19T13:29:37.286Z,33.92
2023-01-19T13:32:13.285Z,36.88
2023-01-19T13:34:44.449Z,35.35
2023-01-19T13:37:20.757Z,33.28
2023-01-19T13:39:50.222Z,36.58
2023-01-19T13:42:31.111Z,34.97
2023-01-19T13:45:00.170Z,35.83
2023-01-19T13:47:43.063Z,33.05
2023-01-19T13:50:31.525Z,37.80
2023-01-19T13:52:59.406Z,38.80
2023-01-19T13:55:28.406Z,38.85
2023-01-19T13:57:55.994Z,34.90
2023-01-19T14:00:29.159Z,37.13
2023-01-19T14:03:09.767Z,37.55
2023-01-19T14:05:41.893Z,39.33
2023-01-19T14:08:11.105Z,40.65
2023-01-19T14:10:54.285Z,36.03
2023-01-19T14:13:23.063Z,43.25
2023-01-19T14:15:51.687Z,42.88
2023-01-19T14:18:18.965Z,39.97
2023-01-19T14:21:14.125Z,37.28
2023-01-19T14:23:47.452Z,46.95
2023-01-19T14:26:53.905Z,46.20
2023-01-19T14:29:33.603Z,46.63
2023-01-19T14:32:00.867Z,40.92
2023-01-19T14:34:39.777Z,47.03
2023-01-19T14:37:21.053Z,44.20
2023-01-19T14:39:56.583Z,44.67
2023-01-19T14:42:42.209Z,49.08
2023-01-19T14:45:34.672Z,45.38
2023-01-19T14:48:31.222Z,40.67
2023-01-19T14:51:03.654Z,42.83
2023-01-19T14:53:37.113Z,46.78
2023-01-19T14:56:05.694Z,44.35
2023-01-19T14:58:34.439Z,48.97
2023-01-19T15:01:02.060Z,47.80
2023-01-19T15:03:44.023Z,50.10
2023-01-19T15:06:19.872Z,42.83
2023-01-19T15:08:47.362Z,43.78
2023-01-19T15:11:33.853Z,44.15
2023-01-19T15:14:01.497Z,42.60
2023-01-19T15:16:29.930Z,41.45
2023-01-19T15:18:57.301Z,43.92
2023-01-19T15:21:26.563Z,42.88
2023-01-19T15:23:54.596Z,47.03
2023-01-19T15:26:24.004Z,43.78
2023-01-19T15:28:51.355Z,50.00
2023-01-19T15:31:21.052Z,48.65
2023-01-19T15:33:48.432Z,47.55
2023-01-19T15:36:21.510Z,43.30
2023-01-19T15:38:51.380Z,41.25
2023-01-19T15:41:27.586Z,43.55
2023-01-19T15:43:54.804Z,44.35
2023-01-19T15:46:22.900Z,41.95
2023-01-19T15:48:52.904Z,45.97
2023-01-19T15:51:23.710Z,47.65
2023-01-19T15:53:51.393Z,45.72
2023-01-19T15:56:26.201Z,49.25
2023-01-19T15:58:53.763Z,48.30
2023-01-19T16:01:33.825Z,47.67
2023-01-19T16:04:06.515Z,40.33
2023-01-19T16:06:34.203Z,40.58
2023-01-19T16:09:01.853Z,43.85
2023-01-19T16:11:31.313Z,48.08
2023-01-19T16:13:58.579Z,46.28
2023-01-19T16:16:26.811Z,49.55
2023-01-19T16:18:54.184Z,50.70
2023-01-19T16:21:21.424Z,47.08
2023-01-19T16:23:48.634Z,49.03
2023-01-19T16:26:42.276Z,53.15
2023-01-19T16:29:10.771Z,48.13
2023-01-19T16:31:38.875Z,46.33
2023-01-19T16:34:06.331Z,46.53
2023-01-19T16:36:37.674Z,57.28
2023-01-19T16:39:09.272Z,48.45
2023-01-19T16:41:36.686Z,57.35
2023-01-19T16:44:06.893Z,52.38
2023-01-19T16:46:36.787Z,55.05
2023-01-19T16:49:06.506Z,53.53
2023-01-19T16:51:36.559Z,50.05
2023-01-19T16:54:03.883Z,47.67
2023-01-19T16:56:31.078Z,51.75
2023-01-19T16:59:01.600Z,49.35
2023-01-19T17:01:29.231Z,48.25
2023-01-19T17:03:56.692Z,43.75
2023-01-19T17:06:24.466Z,45.30
2023-01-19T17:08:52.120Z,38.22
2023-01-19T17:11:41.512Z,42.67
2023-01-19T17:14:17.867Z,42.88
2023-01-19T17:16:45.311Z,43.70
2023-01-19T17:19:18.184Z,36.15
2023-01-19T17:21:46.400Z,39.03
2023-01-19T17:24:13.722Z,39.58
2023-01-19T17:26:42.407Z,40.65
2023-01-19T17:29:10.077Z,46.38
2023-01-19T17:31:37.371Z,41.05
2023-01-19T17:34:04.793Z,42.85
2023-01-19T17:36:32.552Z,39.95
2023-01-19T17:39:04.459Z,41.80
2023-01-19T17:41:33.529Z,41.42
2023-01-19T17:44:01.405Z,47.88
2023-01-19T17:46:29.205Z,40.65
2023-01-19T17:48:59.946Z,49.17
2023-01-19T17:51:27.760Z,50.80
2023-01-19T17:53:55.211Z,57.28
2023-01-19T17:56:29.914Z,54.65
2023-01-19T17:58:57.985Z,47.90
2023-01-19T18:01:30.548Z,55.13
2023-01-19T18:03:58.101Z,56.50
2023-01-19T18:06:27.571Z,54.67
2023-01-19T18:08:57.276Z,55.92
2023-01-19T18:11:24.758Z,54.83
2023-01-19T18:13:52.035Z,53.83
2023-01-19T18:16:24.827Z,54.38
2023-01-19T18:18:53.688Z,53.80
2023-01-19T18:21:21.891Z,57.08
2023-01-19T18:23:50.230Z,62.65
2023-01-19T18:26:20.145Z,54.53
2023-01-19T18:28:48.686Z,78.05
2023-01-19T18:31:18.200Z,61.10
2023-01-19T18:33:47.616Z,58.25
2023-01-19T18:36:15.427Z,63.08
2023-01-19T18:38:42.844Z,65.00
2023-01-19T18:41:18.737Z,54.15
2023-01-19T18:43:46.663Z,65.22
2023-01-19T18:46:14.575Z,55.58
2023-01-19T18:48:42.077Z,64.10
2023-01-19T18:51:11.657Z,66.57
2023-01-19T18:53:38.949Z,68.28
2023-01-19T18:56:06.607Z,60.03
2023-01-19T18:58:34.452Z,64.63
2023-01-19T19:01:03.181Z,69.05
2023-01-19T19:03:30.552Z,63.35
2023-01-19T19:06:02.623Z,68.18
2023-01-19T19:08:29.995Z,57.10
2023-01-19T19:10:59.949Z,68.70
2023-01-19T19:13:27.219Z,65.10
2023-01-19T19:15:57.005Z,63.67
2023-01-19T19:18:24.280Z,66.78
2023-01-19T19:20:58.899Z,62.45
2023-01-19T19:23:34.131Z,54.92
2023-01-19T19:26:08.585Z,71.65
2023-01-19T19:29:04.851Z,59.05
2023-01-19T19:31:32.240Z,60.13
2023-01-19T19:33:59.632Z,63.88
2023-01-19T19:36:28.273Z,60.60
2023-01-19T19:38:55.621Z,55.67
2023-01-19T19:41:24.797Z,51.60
2023-01-19T19:43:52.098Z,60.55
2023-01-19T19:46:22.954Z,53.00
2023-01-19T19:48:51.244Z,59.60
2023-01-19T19:51:25.547Z,55.83
2023-01-19T19:53:54.865Z,59.40
2023-01-19T19:56:23.447Z,63.83
2023-01-19T19:58:51.546Z,65.10
2023-01-19T20:01:26.954Z,63.53
2023-01-19T20:03:55.000Z,65.70
2023-01-19T20:06:24.837Z,51.38
2023-01-19T20:08:53.734Z,58.53
2023-01-19T20:11:23.893Z,57.40
2023-01-19T20:13:51.198Z,57.00
2023-01-19T20:16:20.632Z,52.85
2023-01-19T20:18:51.163Z,53.58
2023-01-19T20:21:25.992Z,49.47
2023-01-19T20:23:53.743Z,47.45
2023-01-19T20:26:30.825Z,48.95
2023-01-19T20:28:59.965Z,47.90
2023-01-19T20:31:30.445Z,44.78
2023-01-19T20:33:59.675Z,38.45
2023-01-19T20:36:27.065Z,41.60
2023-01-19T20:38:55.177Z,44.38
2023-01-19T20:41:22.822Z,43.33
2023-01-19T20:43:50.144Z,42.58
2023-01-19T20:46:20.152Z,50.10
2023-01-19T20:48:52.799Z,43.90
2023-01-19T20:51:27.028Z,46.22
2023-01-19T20:53:54.339Z,46.85
2023-01-19T20:56:21.545Z,49.83
2023-01-19T20:58:48.796Z,51.50
2023-01-19T21:01:20.767Z,53.55
2023-01-19T21:03:48.275Z,50.17
2023-01-19T21:06:15.655Z,45.92
2023-01-19T21:08:43.318Z,48.85
2023-01-19T21:11:10.590Z,43.97
2023-01-19T21:13:40.922Z,52.60
2023-01-19T21:16:09.215Z,49.17
2023-01-19T21:18:36.437Z,59.13
2023-01-19T21:21:07.083Z,49.28
2023-01-19T21:23:36.282Z,55.90
2023-01-19T21:26:03.414Z,54.08
2023-01-19T21:28:31.647Z,56.78
2023-01-19T21:31:06.635Z,63.33
2023-01-19T21:33:34.538Z,54.80
2023-01-19T21:36:01.914Z,53.10
2023-01-19T21:38:29.765Z,50.35
2023-01-19T21:40:57.422Z,52.63
2023-01-19T21:43:25.600Z,47.50
2023-01-19T21:45:53.009Z,50.45
2023-01-19T21:48:20.425Z,51.10
2023-01-19T21:50:57.162Z,66.15
2023-01-19T21:53:24.448Z,62.08
2023-01-19T21:55:51.687Z,52.97
2023-01-19T21:58:18.918Z,47.15
2023-01-19T22:00:46.427Z,47.38
2023-01-19T22:03:13.797Z,39.08
2023-01-19T22:05:41.108Z,36.80
2023-01-19T22:08:08.356Z,39.13
2023-01-19T22:10:39.360Z,38.00
2023-01-19T22:13:07.730Z,35.33
2023-01-19T22:15:35.061Z,36.65
2023-01-19T22:18:04.717Z,35.50
2023-01-19T22:20:32.014Z,38.70
2023-01-19T22:22:59.369Z,35.65
2023-01-19T22:25:27.996Z,37.92
2023-01-19T22:27:55.927Z,39.70
2023-01-19T22:30:23.277Z,39.13
2023-01-19T22:32:50.651Z,38.90
2023-01-19T22:35:18.027Z,34.50
2023-01-19T22:37:45.214Z,36.63
2023-01-19T22:40:12.913Z,39.35
2023-01-19T22:42:40.114Z,36.63
2023-01-19T22:45:08.243Z,42.78
2023-01-19T22:47:35.549Z,38.72
2023-01-19T22:50:02.863Z,38.38
2023-01-19T22:52:30.174Z,42.20
2023-01-19T22:55:12.962Z,35.30
2023-01-19T22:57:40.434Z,40.72
2023-01-19T23:00:08.997Z,39.78
2023-01-19T23:02:36.228Z,40.58
2023-01-19T23:05:03.644Z,37.10
2023-01-19T23:07:30.942Z,39.90
2023-01-19T23:09:58.132Z,38.85
2023-01-19T23:12:25.295Z,36.67
2023-01-19T23:14:52.539Z,35.50
2023-01-19T23:17:19.811Z,33.78
2023-01-19T23:19:47.043Z,30.25
2023-01-19T23:22:14.442Z,29.73
2023-01-19T23:24:41.751Z,31.33
2023-01-19T23:27:09.079Z,28.48
2023-01-19T23:29:36.368Z,24.88
2023-01-19T23:32:03.771Z,27.45
2023-01-19T23:34:31.094Z,24.02
2023-01-19T23:36:58.362Z,31.70
2023-01-19T23:39:25.638Z,26.48
2023-01-19T23:41:52.869Z,31.60
2023-01-19T23:44:20.240Z,30.60
2023-01-19T23:46:48.185Z,31.55
2023-01-19T23:49:15.531Z,27.75
2023-01-19T23:51:42.840Z,28.42
2023-01-19T23:54:10.111Z,31.67
2023-01-19T23:56:38.912Z,29.83
2023-01-19T23:59:11.211Z,28.08
